sensor_id;sensor_type;location;lat;lon;timestamp;temperature;humidity
29431;DHT22;16404;49.902;10.074;2023-08-06T00:00:36;20.60;62.20
29431;DHT22;16404;49.902;10.074;2023-08-06T00:03:20;20.70;62.40
29431;DHT22;16404;49.902;10.074;2023-08-06T00:06:05;20.70;62.70
29431;DHT22;16404;49.902;10.074;2023-08-06T00:08:50;20.70;62.70
29431;DHT22;16404;49.902;10.074;2023-08-06T00:11:34;20.70;62.10
29431;DHT22;16404;49.902;10.074;2023-08-06T00:14:19;20.70;62.30
29431;DHT22;16404;49.902;10.074;2023-08-06T00:17:04;20.60;63.10
29431;DHT22;16404;49.902;10.074;2023-08-06T00:19:49;20.60;63.40
29431;DHT22;16404;49.902;10.074;2023-08-06T00:22:35;20.60;63.60
29431;DHT22;16404;49.902;10.074;2023-08-06T00:25:19;20.60;63.60
29431;DHT22;16404;49.902;10.074;2023-08-06T00:28:04;20.60;64.10
29431;DHT22;16404;49.902;10.074;2023-08-06T00:30:55;20.60;64.30
29431;DHT22;16404;49.902;10.074;2023-08-06T00:33:40;20.50;64.40
29431;DHT22;16404;49.902;10.074;2023-08-06T00:36:24;20.50;64.40
29431;DHT22;16404;49.902;10.074;2023-08-06T00:39:09;20.50;64.30
29431;DHT22;16404;49.902;10.074;2023-08-06T00:41:53;20.50;64.30
29431;DHT22;16404;49.902;10.074;2023-08-06T00:44:38;20.40;64.60
29431;DHT22;16404;49.902;10.074;2023-08-06T00:47:23;20.40;64.60
29431;DHT22;16404;49.902;10.074;2023-08-06T00:50:08;20.40;64.70
29431;DHT22;16404;49.902;10.074;2023-08-06T00:52:53;20.50;64.20
29431;DHT22;16404;49.902;10.074;2023-08-06T00:55:38;20.40;64.30
29431;DHT22;16404;49.902;10.074;2023-08-06T00:58:22;20.50;64.00
29431;DHT22;16404;49.902;10.074;2023-08-06T01:01:07;20.40;64.10
29431;DHT22;16404;49.902;10.074;2023-08-06T01:03:53;20.30;64.50
29431;DHT22;16404;49.902;10.074;2023-08-06T01:15:49;20.20;65.20
29431;DHT22;16404;49.902;10.074;2023-08-06T01:18:34;20.10;65.20
29431;DHT22;16404;49.902;10.074;2023-08-06T01:21:19;20.20;65.20
29431;DHT22;16404;49.902;10.074;2023-08-06T01:24:03;20.20;64.80
29431;DHT22;16404;49.902;10.074;2023-08-06T01:26:50;20.20;64.50
29431;DHT22;16404;49.902;10.074;2023-08-06T01:29:43;20.20;64.30
29431;DHT22;16404;49.902;10.074;2023-08-06T01:32:32;20.20;64.80
29431;DHT22;16404;49.902;10.074;2023-08-06T01:35:18;20.20;64.50
29431;DHT22;16404;49.902;10.074;2023-08-06T01:38:03;20.20;64.40
29431;DHT22;16404;49.902;10.074;2023-08-06T01:40:48;20.10;64.30
29431;DHT22;16404;49.902;10.074;2023-08-06T01:43:33;20.10;64.10
29431;DHT22;16404;49.902;10.074;2023-08-06T01:46:17;20.10;64.20
29431;DHT22;16404;49.902;10.074;2023-08-06T01:49:02;20.10;64.30
29431;DHT22;16404;49.902;10.074;2023-08-06T01:51:46;20.00;64.50
29431;DHT22;16404;49.902;10.074;2023-08-06T01:54:31;20.00;64.70
29431;DHT22;16404;49.902;10.074;2023-08-06T01:57:15;20.00;64.80
29431;DHT22;16404;49.902;10.074;2023-08-06T02:00:00;19.90;64.80
29431;DHT22;16404;49.902;10.074;2023-08-06T02:02:45;19.90;64.80
29431;DHT22;16404;49.902;10.074;2023-08-06T02:05:29;19.90;65.10
29431;DHT22;16404;49.902;10.074;2023-08-06T02:08:14;19.90;65.00
29431;DHT22;16404;49.902;10.074;2023-08-06T02:10:58;19.90;64.80
29431;DHT22;16404;49.902;10.074;2023-08-06T02:13:43;19.90;64.80
29431;DHT22;16404;49.902;10.074;2023-08-06T02:16:27;19.90;64.80
29431;DHT22;16404;49.902;10.074;2023-08-06T02:19:12;19.90;64.90
29431;DHT22;16404;49.902;10.074;2023-08-06T02:21:57;19.80;64.80
29431;DHT22;16404;49.902;10.074;2023-08-06T02:24:41;19.80;64.80
29431;DHT22;16404;49.902;10.074;2023-08-06T02:27:28;19.80;64.90
29431;DHT22;16404;49.902;10.074;2023-08-06T02:30:13;19.80;65.00
29431;DHT22;16404;49.902;10.074;2023-08-06T02:32:57;19.80;65.00
29431;DHT22;16404;49.902;10.074;2023-08-06T02:35:41;19.70;65.50
29431;DHT22;16404;49.902;10.074;2023-08-06T02:38:26;19.70;64.70
29431;DHT22;16404;49.902;10.074;2023-08-06T02:41:11;19.70;64.60
29431;DHT22;16404;49.902;10.074;2023-08-06T02:43:55;19.60;64.40
29431;DHT22;16404;49.902;10.074;2023-08-06T02:46:40;19.60;64.30
29431;DHT22;16404;49.902;10.074;2023-08-06T02:49:26;19.60;64.20
29431;DHT22;16404;49.902;10.074;2023-08-06T02:52:10;19.60;63.90
29431;DHT22;16404;49.902;10.074;2023-08-06T02:54:55;19.50;63.80
29431;DHT22;16404;49.902;10.074;2023-08-06T02:57:39;19.40;64.10
29431;DHT22;16404;49.902;10.074;2023-08-06T03:00:24;19.30;64.20
29431;DHT22;16404;49.902;10.074;2023-08-06T03:03:09;19.20;64.10
29431;DHT22;16404;49.902;10.074;2023-08-06T03:06:02;19.20;64.20
29431;DHT22;16404;49.902;10.074;2023-08-06T03:08:58;19.10;64.40
29431;DHT22;16404;49.902;10.074;2023-08-06T03:11:43;19.00;64.60
29431;DHT22;16404;49.902;10.074;2023-08-06T03:14:31;19.00;64.80
29431;DHT22;16404;49.902;10.074;2023-08-06T03:17:16;18.90;64.90
29431;DHT22;16404;49.902;10.074;2023-08-06T03:20:00;18.90;64.90
29431;DHT22;16404;49.902;10.074;2023-08-06T03:22:46;18.80;65.10
29431;DHT22;16404;49.902;10.074;2023-08-06T03:25:31;18.80;65.80
29431;DHT22;16404;49.902;10.074;2023-08-06T03:28:16;18.80;65.90
29431;DHT22;16404;49.902;10.074;2023-08-06T03:31:01;18.80;66.00
29431;DHT22;16404;49.902;10.074;2023-08-06T03:33:51;18.80;66.10
29431;DHT22;16404;49.902;10.074;2023-08-06T03:36:41;18.80;66.10
29431;DHT22;16404;49.902;10.074;2023-08-06T03:39:26;18.90;66.20
29431;DHT22;16404;49.902;10.074;2023-08-06T03:42:11;18.90;66.10
29431;DHT22;16404;49.902;10.074;2023-08-06T03:44:56;19.00;66.10
29431;DHT22;16404;49.902;10.074;2023-08-06T03:47:40;18.90;65.90
29431;DHT22;16404;49.902;10.074;2023-08-06T03:50:26;18.90;65.90
29431;DHT22;16404;49.902;10.074;2023-08-06T03:53:11;18.90;66.10
29431;DHT22;16404;49.902;10.074;2023-08-06T03:55:56;19.00;66.40
29431;DHT22;16404;49.902;10.074;2023-08-06T03:58:44;19.00;66.30
29431;DHT22;16404;49.902;10.074;2023-08-06T04:01:28;19.00;66.20
29431;DHT22;16404;49.902;10.074;2023-08-06T04:04:13;19.00;66.40
29431;DHT22;16404;49.902;10.074;2023-08-06T04:06:57;19.00;66.50
29431;DHT22;16404;49.902;10.074;2023-08-06T04:09:56;19.00;66.50
29431;DHT22;16404;49.902;10.074;2023-08-06T04:12:43;18.90;66.90
29431;DHT22;16404;49.902;10.074;2023-08-06T04:15:28;18.90;67.00
29431;DHT22;16404;49.902;10.074;2023-08-06T04:18:13;18.90;67.10
29431;DHT22;16404;49.902;10.074;2023-08-06T04:20:57;19.00;67.00
29431;DHT22;16404;49.902;10.074;2023-08-06T04:23:43;19.00;67.00
29431;DHT22;16404;49.902;10.074;2023-08-06T04:26:28;19.00;67.00
29431;DHT22;16404;49.902;10.074;2023-08-06T04:29:13;19.10;67.00
29431;DHT22;16404;49.902;10.074;2023-08-06T04:31:58;19.10;66.90
29431;DHT22;16404;49.902;10.074;2023-08-06T04:34:43;19.10;66.90
29431;DHT22;16404;49.902;10.074;2023-08-06T04:37:27;19.20;66.60
29431;DHT22;16404;49.902;10.074;2023-08-06T04:40:12;19.20;66.30
29431;DHT22;16404;49.902;10.074;2023-08-06T04:42:58;19.20;66.40
29431;DHT22;16404;49.902;10.074;2023-08-06T04:45:47;19.20;66.50
29431;DHT22;16404;49.902;10.074;2023-08-06T04:48:31;19.10;66.60
29431;DHT22;16404;49.902;10.074;2023-08-06T04:51:16;19.10;66.70
29431;DHT22;16404;49.902;10.074;2023-08-06T04:54:01;19.10;66.80
29431;DHT22;16404;49.902;10.074;2023-08-06T04:56:45;19.10;67.70
29431;DHT22;16404;49.902;10.074;2023-08-06T04:59:29;19.10;67.00
29431;DHT22;16404;49.902;10.074;2023-08-06T05:02:14;19.10;67.00
29431;DHT22;16404;49.902;10.074;2023-08-06T05:04:59;19.20;67.00
29431;DHT22;16404;49.902;10.074;2023-08-06T05:07:44;19.20;67.10
29431;DHT22;16404;49.902;10.074;2023-08-06T05:10:29;19.20;67.20
29431;DHT22;16404;49.902;10.074;2023-08-06T05:13:14;19.30;67.30
29431;DHT22;16404;49.902;10.074;2023-08-06T05:15:58;19.40;67.50
29431;DHT22;16404;49.902;10.074;2023-08-06T05:18:43;19.40;67.60
29431;DHT22;16404;49.902;10.074;2023-08-06T05:21:27;19.40;67.80
29431;DHT22;16404;49.902;10.074;2023-08-06T05:24:12;19.50;67.90
29431;DHT22;16404;49.902;10.074;2023-08-06T05:26:56;19.60;68.20
29431;DHT22;16404;49.902;10.074;2023-08-06T05:29:41;19.70;68.40
29431;DHT22;16404;49.902;10.074;2023-08-06T05:32:26;19.80;68.30
29431;DHT22;16404;49.902;10.074;2023-08-06T05:35:10;20.00;67.50
29431;DHT22;16404;49.902;10.074;2023-08-06T05:37:55;20.10;66.60
29431;DHT22;16404;49.902;10.074;2023-08-06T05:40:39;20.20;66.50
29431;DHT22;16404;49.902;10.074;2023-08-06T05:43:24;20.30;66.60
29431;DHT22;16404;49.902;10.074;2023-08-06T05:46:08;20.50;66.30
29431;DHT22;16404;49.902;10.074;2023-08-06T05:48:53;20.50;65.90
29431;DHT22;16404;49.902;10.074;2023-08-06T05:51:38;20.60;65.80
29431;DHT22;16404;49.902;10.074;2023-08-06T05:54:22;20.70;65.60
29431;DHT22;16404;49.902;10.074;2023-08-06T05:57:07;20.60;65.60
29431;DHT22;16404;49.902;10.074;2023-08-06T05:59:52;20.60;65.40
29431;DHT22;16404;49.902;10.074;2023-08-06T06:02:36;20.60;65.40
29431;DHT22;16404;49.902;10.074;2023-08-06T06:05:21;20.70;65.30
29431;DHT22;16404;49.902;10.074;2023-08-06T06:08:06;20.80;64.80
29431;DHT22;16404;49.902;10.074;2023-08-06T06:10:50;20.90;64.70
29431;DHT22;16404;49.902;10.074;2023-08-06T06:13:34;21.00;64.40
29431;DHT22;16404;49.902;10.074;2023-08-06T06:16:19;21.10;63.80
29431;DHT22;16404;49.902;10.074;2023-08-06T06:19:04;21.20;63.80
29431;DHT22;16404;49.902;10.074;2023-08-06T06:21:48;21.30;63.70
29431;DHT22;16404;49.902;10.074;2023-08-06T06:24:33;21.30;63.60
29431;DHT22;16404;49.902;10.074;2023-08-06T06:27:17;21.20;63.60
29431;DHT22;16404;49.902;10.074;2023-08-06T06:30:02;21.20;63.20
29431;DHT22;16404;49.902;10.074;2023-08-06T06:32:48;21.20;63.50
29431;DHT22;16404;49.902;10.074;2023-08-06T06:35:33;21.40;63.30
29431;DHT22;16404;49.902;10.074;2023-08-06T06:38:17;21.50;62.70
29431;DHT22;16404;49.902;10.074;2023-08-06T06:41:01;21.50;62.40
29431;DHT22;16404;49.902;10.074;2023-08-06T06:43:47;21.50;61.60
29431;DHT22;16404;49.902;10.074;2023-08-06T06:46:32;21.40;61.40
29431;DHT22;16404;49.902;10.074;2023-08-06T06:49:16;21.30;61.80
29431;DHT22;16404;49.902;10.074;2023-08-06T06:52:01;21.20;61.60
29431;DHT22;16404;49.902;10.074;2023-08-06T06:54:45;21.00;61.50
29431;DHT22;16404;49.902;10.074;2023-08-06T06:57:30;20.90;61.90
29431;DHT22;16404;49.902;10.074;2023-08-06T07:00:14;20.60;62.30
29431;DHT22;16404;49.902;10.074;2023-08-06T07:02:59;20.50;62.80
29431;DHT22;16404;49.902;10.074;2023-08-06T07:05:44;20.40;63.00
29431;DHT22;16404;49.902;10.074;2023-08-06T07:08:29;20.30;63.20
29431;DHT22;16404;49.902;10.074;2023-08-06T07:11:13;20.30;63.30
29431;DHT22;16404;49.902;10.074;2023-08-06T07:13:58;20.30;63.20
29431;DHT22;16404;49.902;10.074;2023-08-06T07:16:43;20.30;63.20
29431;DHT22;16404;49.902;10.074;2023-08-06T07:19:29;20.20;63.30
29431;DHT22;16404;49.902;10.074;2023-08-06T07:22:13;20.20;63.40
29431;DHT22;16404;49.902;10.074;2023-08-06T07:24:58;20.10;63.60
29431;DHT22;16404;49.902;10.074;2023-08-06T07:27:42;20.10;63.70
29431;DHT22;16404;49.902;10.074;2023-08-06T07:30:27;20.10;63.40
29431;DHT22;16404;49.902;10.074;2023-08-06T07:33:12;20.00;63.50
29431;DHT22;16404;49.902;10.074;2023-08-06T07:35:56;20.10;63.90
29431;DHT22;16404;49.902;10.074;2023-08-06T07:38:41;20.00;64.30
29431;DHT22;16404;49.902;10.074;2023-08-06T07:41:26;20.00;64.50
29431;DHT22;16404;49.902;10.074;2023-08-06T07:44:10;20.10;64.50
29431;DHT22;16404;49.902;10.074;2023-08-06T07:46:55;20.10;64.50
29431;DHT22;16404;49.902;10.074;2023-08-06T07:49:39;20.20;64.20
29431;DHT22;16404;49.902;10.074;2023-08-06T07:52:24;20.20;63.80
29431;DHT22;16404;49.902;10.074;2023-08-06T07:55:09;20.20;63.20
29431;DHT22;16404;49.902;10.074;2023-08-06T07:57:54;20.20;63.30
29431;DHT22;16404;49.902;10.074;2023-08-06T08:00:38;20.20;63.50
29431;DHT22;16404;49.902;10.074;2023-08-06T08:03:26;20.30;63.20
29431;DHT22;16404;49.902;10.074;2023-08-06T08:06:10;20.30;62.70
29431;DHT22;16404;49.902;10.074;2023-08-06T08:08:55;20.40;62.40
29431;DHT22;16404;49.902;10.074;2023-08-06T08:11:40;20.40;62.00
29431;DHT22;16404;49.902;10.074;2023-08-06T08:14:25;20.50;61.80
29431;DHT22;16404;49.902;10.074;2023-08-06T08:17:09;20.60;61.40
29431;DHT22;16404;49.902;10.074;2023-08-06T08:19:54;20.70;61.70
29431;DHT22;16404;49.902;10.074;2023-08-06T08:22:39;20.90;61.60
29431;DHT22;16404;49.902;10.074;2023-08-06T08:25:24;21.00;61.40
29431;DHT22;16404;49.902;10.074;2023-08-06T08:28:08;21.10;61.20
29431;DHT22;16404;49.902;10.074;2023-08-06T08:30:53;21.20;61.20
29431;DHT22;16404;49.902;10.074;2023-08-06T08:33:38;21.20;60.30
29431;DHT22;16404;49.902;10.074;2023-08-06T08:36:22;21.20;60.00
29431;DHT22;16404;49.902;10.074;2023-08-06T08:39:07;21.20;60.20
29431;DHT22;16404;49.902;10.074;2023-08-06T08:41:52;21.10;60.60
29431;DHT22;16404;49.902;10.074;2023-08-06T08:44:36;21.10;60.70
29431;DHT22;16404;49.902;10.074;2023-08-06T08:47:24;21.10;60.70
29431;DHT22;16404;49.902;10.074;2023-08-06T08:50:10;21.00;61.20
29431;DHT22;16404;49.902;10.074;2023-08-06T08:52:55;20.90;61.70
29431;DHT22;16404;49.902;10.074;2023-08-06T08:55:40;20.80;62.20
29431;DHT22;16404;49.902;10.074;2023-08-06T08:58:26;20.90;63.10
29431;DHT22;16404;49.902;10.074;2023-08-06T09:01:11;20.90;63.60
29431;DHT22;16404;49.902;10.074;2023-08-06T09:03:57;20.80;63.60
29431;DHT22;16404;49.902;10.074;2023-08-06T09:06:42;20.90;63.80
29431;DHT22;16404;49.902;10.074;2023-08-06T09:09:31;20.90;63.50
29431;DHT22;16404;49.902;10.074;2023-08-06T09:12:17;20.90;63.90
29431;DHT22;16404;49.902;10.074;2023-08-06T09:15:02;21.00;63.40
29431;DHT22;16404;49.902;10.074;2023-08-06T09:17:47;21.00;63.20
29431;DHT22;16404;49.902;10.074;2023-08-06T09:20:34;21.10;62.80
29431;DHT22;16404;49.902;10.074;2023-08-06T09:23:18;21.20;63.20
29431;DHT22;16404;49.902;10.074;2023-08-06T09:26:04;21.30;62.80
29431;DHT22;16404;49.902;10.074;2023-08-06T09:28:49;21.30;62.50
29431;DHT22;16404;49.902;10.074;2023-08-06T09:31:57;21.30;61.60
29431;DHT22;16404;49.902;10.074;2023-08-06T09:34:42;21.30;61.90
29431;DHT22;16404;49.902;10.074;2023-08-06T09:37:35;21.20;61.70
29431;DHT22;16404;49.902;10.074;2023-08-06T09:40:29;21.20;61.40
29431;DHT22;16404;49.902;10.074;2023-08-06T09:43:14;21.10;61.70
29431;DHT22;16404;49.902;10.074;2023-08-06T09:45:58;21.10;62.20
29431;DHT22;16404;49.902;10.074;2023-08-06T09:48:46;21.10;62.10
29431;DHT22;16404;49.902;10.074;2023-08-06T09:51:31;21.10;62.30
29431;DHT22;16404;49.902;10.074;2023-08-06T09:54:16;21.20;62.70
29431;DHT22;16404;49.902;10.074;2023-08-06T09:57:01;21.10;62.40
29431;DHT22;16404;49.902;10.074;2023-08-06T09:59:46;21.10;62.30
29431;DHT22;16404;49.902;10.074;2023-08-06T10:02:32;20.90;63.00
29431;DHT22;16404;49.902;10.074;2023-08-06T10:05:18;20.90;63.00
29431;DHT22;16404;49.902;10.074;2023-08-06T10:08:02;20.80;63.60
29431;DHT22;16404;49.902;10.074;2023-08-06T10:10:47;20.90;63.40
29431;DHT22;16404;49.902;10.074;2023-08-06T10:13:33;21.00;63.50
29431;DHT22;16404;49.902;10.074;2023-08-06T10:16:18;21.10;63.80
29431;DHT22;16404;49.902;10.074;2023-08-06T10:19:04;21.10;63.40
29431;DHT22;16404;49.902;10.074;2023-08-06T10:24:58;21.30;62.50
29431;DHT22;16404;49.902;10.074;2023-08-06T10:30:33;21.40;61.70
29431;DHT22;16404;49.902;10.074;2023-08-06T10:33:19;21.40;62.10
29431;DHT22;16404;49.902;10.074;2023-08-06T10:36:05;21.40;61.80
29431;DHT22;16404;49.902;10.074;2023-08-06T10:38:57;21.50;61.60
29431;DHT22;16404;49.902;10.074;2023-08-06T10:41:42;21.50;61.90
29431;DHT22;16404;49.902;10.074;2023-08-06T10:44:28;21.70;62.30
29431;DHT22;16404;49.902;10.074;2023-08-06T10:47:27;21.80;61.30
29431;DHT22;16404;49.902;10.074;2023-08-06T10:50:16;21.90;60.80
29431;DHT22;16404;49.902;10.074;2023-08-06T10:53:05;22.00;59.60
29431;DHT22;16404;49.902;10.074;2023-08-06T10:55:52;22.10;59.60
29431;DHT22;16404;49.902;10.074;2023-08-06T10:58:37;22.30;58.90
29431;DHT22;16404;49.902;10.074;2023-08-06T11:01:22;22.40;58.70
29431;DHT22;16404;49.902;10.074;2023-08-06T11:04:07;22.60;58.30
29431;DHT22;16404;49.902;10.074;2023-08-06T11:06:52;22.70;57.40
29431;DHT22;16404;49.902;10.074;2023-08-06T11:09:37;22.80;57.00
29431;DHT22;16404;49.902;10.074;2023-08-06T11:12:22;22.80;57.00
29431;DHT22;16404;49.902;10.074;2023-08-06T11:15:07;22.90;56.80
29431;DHT22;16404;49.902;10.074;2023-08-06T11:17:51;23.00;56.80
29431;DHT22;16404;49.902;10.074;2023-08-06T11:20:36;23.10;56.20
29431;DHT22;16404;49.902;10.074;2023-08-06T11:23:21;23.20;56.20
29431;DHT22;16404;49.902;10.074;2023-08-06T11:26:05;23.30;56.40
29431;DHT22;16404;49.902;10.074;2023-08-06T11:28:50;23.30;54.60
29431;DHT22;16404;49.902;10.074;2023-08-06T11:31:36;23.30;54.60
29431;DHT22;16404;49.902;10.074;2023-08-06T11:34:20;23.30;54.10
29431;DHT22;16404;49.902;10.074;2023-08-06T11:37:06;23.40;53.30
29431;DHT22;16404;49.902;10.074;2023-08-06T11:39:51;23.50;53.10
29431;DHT22;16404;49.902;10.074;2023-08-06T11:42:36;23.50;52.80
29431;DHT22;16404;49.902;10.074;2023-08-06T11:45:24;23.60;52.80
29431;DHT22;16404;49.902;10.074;2023-08-06T11:48:09;23.60;53.10
29431;DHT22;16404;49.902;10.074;2023-08-06T11:50:57;23.70;52.80
29431;DHT22;16404;49.902;10.074;2023-08-06T11:53:48;23.80;52.70
29431;DHT22;16404;49.902;10.074;2023-08-06T11:56:33;23.80;53.80
29431;DHT22;16404;49.902;10.074;2023-08-06T11:59:19;23.70;53.90
29431;DHT22;16404;49.902;10.074;2023-08-06T12:02:09;23.70;54.00
29431;DHT22;16404;49.902;10.074;2023-08-06T12:05:04;23.50;54.40
29431;DHT22;16404;49.902;10.074;2023-08-06T12:07:54;23.30;54.50
29431;DHT22;16404;49.902;10.074;2023-08-06T12:10:39;23.20;54.70
29431;DHT22;16404;49.902;10.074;2023-08-06T12:13:24;23.20;55.20
29431;DHT22;16404;49.902;10.074;2023-08-06T12:16:08;23.10;55.40
29431;DHT22;16404;49.902;10.074;2023-08-06T12:18:53;23.00;55.50
29431;DHT22;16404;49.902;10.074;2023-08-06T12:21:37;23.00;55.80
29431;DHT22;16404;49.902;10.074;2023-08-06T12:24:22;22.90;56.20
29431;DHT22;16404;49.902;10.074;2023-08-06T12:27:07;22.80;56.90
29431;DHT22;16404;49.902;10.074;2023-08-06T12:29:52;22.70;57.20
29431;DHT22;16404;49.902;10.074;2023-08-06T12:32:37;22.50;57.30
29431;DHT22;16404;49.902;10.074;2023-08-06T12:35:21;22.50;58.00
29431;DHT22;16404;49.902;10.074;2023-08-06T12:38:06;22.50;57.80
29431;DHT22;16404;49.902;10.074;2023-08-06T12:40:50;22.50;56.90
29431;DHT22;16404;49.902;10.074;2023-08-06T12:43:35;22.50;56.60
29431;DHT22;16404;49.902;10.074;2023-08-06T12:46:19;22.50;56.80
29431;DHT22;16404;49.902;10.074;2023-08-06T12:49:04;22.60;56.80
29431;DHT22;16404;49.902;10.074;2023-08-06T12:51:49;22.60;56.70
29431;DHT22;16404;49.902;10.074;2023-08-06T12:54:34;22.60;56.80
29431;DHT22;16404;49.902;10.074;2023-08-06T12:57:20;22.70;57.00
29431;DHT22;16404;49.902;10.074;2023-08-06T13:00:05;22.70;56.50
29431;DHT22;16404;49.902;10.074;2023-08-06T13:02:50;22.80;56.20
29431;DHT22;16404;49.902;10.074;2023-08-06T13:05:34;22.90;56.20
29431;DHT22;16404;49.902;10.074;2023-08-06T13:08:20;22.90;56.00
29431;DHT22;16404;49.902;10.074;2023-08-06T13:11:05;22.90;56.50
29431;DHT22;16404;49.902;10.074;2023-08-06T13:13:49;23.00;57.10
29431;DHT22;16404;49.902;10.074;2023-08-06T13:16:34;23.00;57.40
29431;DHT22;16404;49.902;10.074;2023-08-06T13:19:19;22.90;57.70
29431;DHT22;16404;49.902;10.074;2023-08-06T13:22:03;22.90;58.00
29431;DHT22;16404;49.902;10.074;2023-08-06T13:24:49;22.80;58.00
29431;DHT22;16404;49.902;10.074;2023-08-06T13:27:33;22.80;58.10
29431;DHT22;16404;49.902;10.074;2023-08-06T13:30:18;22.70;57.60
29431;DHT22;16404;49.902;10.074;2023-08-06T13:33:03;22.90;57.70
29431;DHT22;16404;49.902;10.074;2023-08-06T13:35:48;22.90;57.70
29431;DHT22;16404;49.902;10.074;2023-08-06T13:38:34;22.90;58.10
29431;DHT22;16404;49.902;10.074;2023-08-06T13:41:19;22.90;58.10
29431;DHT22;16404;49.902;10.074;2023-08-06T13:44:04;22.80;58.50
29431;DHT22;16404;49.902;10.074;2023-08-06T13:46:48;22.70;58.60
29431;DHT22;16404;49.902;10.074;2023-08-06T13:49:33;22.50;58.60
29431;DHT22;16404;49.902;10.074;2023-08-06T13:52:17;22.30;58.50
29431;DHT22;16404;49.902;10.074;2023-08-06T13:55:02;22.10;58.60
29431;DHT22;16404;49.902;10.074;2023-08-06T13:57:48;21.90;58.80
29431;DHT22;16404;49.902;10.074;2023-08-06T14:00:32;21.60;59.80
29431;DHT22;16404;49.902;10.074;2023-08-06T14:03:17;21.50;59.40
29431;DHT22;16404;49.902;10.074;2023-08-06T14:06:02;21.30;59.60
29431;DHT22;16404;49.902;10.074;2023-08-06T14:08:46;21.10;60.00
29431;DHT22;16404;49.902;10.074;2023-08-06T14:11:31;20.90;61.00
29431;DHT22;16404;49.902;10.074;2023-08-06T14:14:16;20.80;61.50
29431;DHT22;16404;49.902;10.074;2023-08-06T14:17:01;20.60;62.00
29431;DHT22;16404;49.902;10.074;2023-08-06T14:19:45;20.70;62.50
29431;DHT22;16404;49.902;10.074;2023-08-06T14:22:30;20.60;62.60
29431;DHT22;16404;49.902;10.074;2023-08-06T14:25:15;20.60;62.30
29431;DHT22;16404;49.902;10.074;2023-08-06T14:28:00;20.50;62.30
29431;DHT22;16404;49.902;10.074;2023-08-06T14:30:44;20.40;62.30
29431;DHT22;16404;49.902;10.074;2023-08-06T14:33:29;20.20;62.70
29431;DHT22;16404;49.902;10.074;2023-08-06T14:36:13;20.10;63.10
29431;DHT22;16404;49.902;10.074;2023-08-06T14:38:58;19.90;63.20
29431;DHT22;16404;49.902;10.074;2023-08-06T14:41:43;19.90;63.40
29431;DHT22;16404;49.902;10.074;2023-08-06T14:44:27;19.80;63.50
29431;DHT22;16404;49.902;10.074;2023-08-06T14:47:12;19.70;63.60
29431;DHT22;16404;49.902;10.074;2023-08-06T14:49:56;19.80;63.90
29431;DHT22;16404;49.902;10.074;2023-08-06T14:52:41;19.80;64.00
29431;DHT22;16404;49.902;10.074;2023-08-06T14:55:26;19.90;64.20
29431;DHT22;16404;49.902;10.074;2023-08-06T14:58:10;20.00;64.20
29431;DHT22;16404;49.902;10.074;2023-08-06T15:00:55;20.00;64.30
29431;DHT22;16404;49.902;10.074;2023-08-06T15:03:39;20.00;64.30
29431;DHT22;16404;49.902;10.074;2023-08-06T15:06:24;20.00;64.00
29431;DHT22;16404;49.902;10.074;2023-08-06T15:09:08;20.00;64.20
29431;DHT22;16404;49.902;10.074;2023-08-06T15:11:53;20.00;64.60
29431;DHT22;16404;49.902;10.074;2023-08-06T15:14:37;20.00;64.20
29431;DHT22;16404;49.902;10.074;2023-08-06T15:17:22;20.10;64.10
29431;DHT22;16404;49.902;10.074;2023-08-06T15:20:07;20.00;64.10
29431;DHT22;16404;49.902;10.074;2023-08-06T15:22:52;20.00;64.30
29431;DHT22;16404;49.902;10.074;2023-08-06T15:25:36;19.90;64.10
29431;DHT22;16404;49.902;10.074;2023-08-06T15:28:21;19.90;64.10
29431;DHT22;16404;49.902;10.074;2023-08-06T15:31:05;19.90;64.20
29431;DHT22;16404;49.902;10.074;2023-08-06T15:33:52;19.80;64.20
29431;DHT22;16404;49.902;10.074;2023-08-06T15:36:36;19.80;64.50
29431;DHT22;16404;49.902;10.074;2023-08-06T15:39:21;19.80;64.10
29431;DHT22;16404;49.902;10.074;2023-08-06T15:42:05;19.80;64.00
29431;DHT22;16404;49.902;10.074;2023-08-06T15:44:50;19.70;63.70
29431;DHT22;16404;49.902;10.074;2023-08-06T15:47:35;19.70;63.30
29431;DHT22;16404;49.902;10.074;2023-08-06T15:50:24;19.60;63.30
29431;DHT22;16404;49.902;10.074;2023-08-06T15:53:08;19.60;63.70
29431;DHT22;16404;49.902;10.074;2023-08-06T15:55:54;19.60;63.80
29431;DHT22;16404;49.902;10.074;2023-08-06T15:58:39;19.60;64.10
29431;DHT22;16404;49.902;10.074;2023-08-06T16:01:23;19.50;63.90
29431;DHT22;16404;49.902;10.074;2023-08-06T16:04:08;19.50;63.70
29431;DHT22;16404;49.902;10.074;2023-08-06T16:06:53;19.40;63.90
29431;DHT22;16404;49.902;10.074;2023-08-06T16:09:37;19.40;64.80
29431;DHT22;16404;49.902;10.074;2023-08-06T16:12:22;19.40;64.10
29431;DHT22;16404;49.902;10.074;2023-08-06T16:15:07;19.30;64.30
29431;DHT22;16404;49.902;10.074;2023-08-06T16:17:51;19.30;65.50
29431;DHT22;16404;49.902;10.074;2023-08-06T16:20:44;19.20;64.70
29431;DHT22;16404;49.902;10.074;2023-08-06T16:23:28;19.20;64.50
29431;DHT22;16404;49.902;10.074;2023-08-06T16:26:13;19.20;64.30
29431;DHT22;16404;49.902;10.074;2023-08-06T16:28:58;19.10;64.40
29431;DHT22;16404;49.902;10.074;2023-08-06T16:31:42;19.10;64.50
29431;DHT22;16404;49.902;10.074;2023-08-06T16:34:27;19.00;64.60
29431;DHT22;16404;49.902;10.074;2023-08-06T16:37:12;18.90;64.70
29431;DHT22;16404;49.902;10.074;2023-08-06T16:39:57;18.90;64.80
29431;DHT22;16404;49.902;10.074;2023-08-06T16:42:41;18.90;64.60
29431;DHT22;16404;49.902;10.074;2023-08-06T16:45:26;18.80;65.00
29431;DHT22;16404;49.902;10.074;2023-08-06T16:48:10;18.80;65.60
29431;DHT22;16404;49.902;10.074;2023-08-06T16:50:57;18.70;65.70
29431;DHT22;16404;49.902;10.074;2023-08-06T16:53:42;18.60;66.10
29431;DHT22;16404;49.902;10.074;2023-08-06T16:56:28;18.50;66.30
29431;DHT22;16404;49.902;10.074;2023-08-06T16:59:13;18.50;66.50
29431;DHT22;16404;49.902;10.074;2023-08-06T17:01:58;18.40;66.70
29431;DHT22;16404;49.902;10.074;2023-08-06T17:04:46;18.40;67.00
29431;DHT22;16404;49.902;10.074;2023-08-06T17:07:30;18.30;67.10
29431;DHT22;16404;49.902;10.074;2023-08-06T17:10:16;18.20;67.40
29431;DHT22;16404;49.902;10.074;2023-08-06T17:13:04;18.20;67.50
29431;DHT22;16404;49.902;10.074;2023-08-06T17:15:48;18.10;67.40
29431;DHT22;16404;49.902;10.074;2023-08-06T17:18:33;18.10;67.70
29431;DHT22;16404;49.902;10.074;2023-08-06T17:21:17;18.00;67.70